Time;durP1;ratioP1;P1;durP2;ratioP2;P2;SDS_P1;SDS_P2;PMS_P1;PMS_P2;Temp;Humidity;BMP_temperature;BMP_pressure;BME280_temperature;BME280_humidity;BME280_pressure;Samples;Min_cycle;Max_cycle;Signal;HPM_P1;HPM_P2
2022/10/30 00:01:49;;;;;;;;;;;;;;;15.79;91.24;68523.03;4951057;28;19918;-84
2022/10/30 00:04:14;;;;;;;;;;;;;;;15.78;92.40;68522.47;4951324;28;19938;-84
2022/10/30 00:06:39;;;;;;;;;;;;;;;15.77;92.30;68520.75;4941783;28;19918;-84
2022/10/30 00:09:04;;;;;;;;;;;;;;;15.73;92.86;68521.56;4953358;29;19962;-84
2022/10/30 00:11:30;;;;;;;;;;;;;;;15.62;93.69;68500.94;4939924;29;20021;-84
2022/10/30 00:13:55;;;;;;;;;;;;;;;15.56;93.91;68497.38;4933052;29;20387;-84
2022/10/30 00:16:20;;;;;;;;;;;;;;;15.58;93.84;68496.97;4949280;28;19926;-85
2022/10/30 00:18:46;;;;;;;;;;;;;;;15.49;94.62;68489.41;4952937;29;19918;-84
2022/10/30 00:21:13;;;;;;;;;;;;;;;15.54;94.39;68493.00;4953770;29;20004;-84
2022/10/30 00:23:39;;;;;;;;;;;;;;;15.47;95.12;68481.75;4950685;28;19918;-85
2022/10/30 00:26:05;;;;;;;;;;;;;;;15.35;95.57;68479.38;4934733;29;20031;-84
2022/10/30 00:28:30;;;;;;;;;;;;;;;15.37;95.61;68481.66;4949353;28;19918;-84
2022/10/30 00:30:55;;;;;;;;;;;;;;;;;;4947359;28;19919;-84
2022/10/30 00:33:21;;;;;;;;;;;;;;;15.31;95.91;68469.47;4948414;28;19940;-84
2022/10/30 00:35:46;;;;;;;;;;;;;;;15.23;96.49;68460.34;4949361;29;20378;-84
2022/10/30 00:38:11;;;;;;;;;;;;;;;15.17;96.44;68450.84;4951963;29;20306;-85
2022/10/30 00:40:37;;;;;;;;;;;;;;;15.09;97.70;68442.88;4950677;29;19953;-84
2022/10/30 00:43:02;;;;;;;;;;;;;;;;;;4935695;29;19949;-85
2022/10/30 00:45:27;;;;;;;;;;;;;;;;;;4943968;28;19915;-85
2022/10/30 00:47:52;;;;;;;;;;;;;;;;;;4933561;29;19926;-85
2022/10/30 00:50:20;;;;;;;;;;;;;;;14.74;100.00;68403.03;4942092;28;19914;-84
2022/10/30 00:52:45;;;;;;;;;;;;;;;;;;4947814;28;20009;-85
2022/10/30 00:55:15;;;;;;;;;;;;;;;14.71;100.00;68407.66;4951755;28;20009;-84
2022/10/30 00:57:41;;;;;;;;;;;;;;;14.70;100.00;68401.13;4949703;28;20025;-84
2022/10/30 01:00:07;;;;;;;;;;;;;;;14.55;100.00;68384.63;4940816;29;20386;-84
2022/10/30 01:02:32;;;;;;;;;;;;;;;14.43;100.00;68372.09;4932523;29;19915;-84
2022/10/30 01:04:58;;;;;;;;;;;;;;;14.42;100.00;68375.75;4916708;29;19919;-84
2022/10/30 01:07:24;;;;;;;;;;;;;;;14.38;100.00;68365.81;4934436;28;20005;-84
2022/10/30 01:09:49;;;;;;;;;;;;;;;14.29;100.00;68361.50;4947716;28;19996;-84
2022/10/30 01:12:14;;;;;;;;;;;;;;;14.29;100.00;68360.94;4950454;28;19925;-84
2022/10/30 01:14:39;;;;;;;;;;;;;;;;;;4935147;29;19914;-84
2022/10/30 01:17:05;;;;;;;;;;;;;;;;;;4936408;29;20374;-84
2022/10/30 01:19:49;;;;;;;;;;;;;;;14.44;100.00;68378.59;4969405;28;19917;-84
2022/10/30 01:22:14;;;;;;;;;;;;;;;14.52;100.00;68379.09;4965822;28;19911;-85
2022/10/30 01:24:39;;;;;;;;;;;;;;;;;;4937565;29;19919;-84
2022/10/30 01:27:14;;;;;;;;;;;;;;;14.53;100.00;68387.69;4963252;29;19926;-85
2022/10/30 01:29:39;;;;;;;;;;;;;;;;;;4973546;28;19997;-85
2022/10/30 01:32:04;;;;;;;;;;;;;;;;;;4957555;29;19918;-85
2022/10/30 01:34:36;;;;;;;;;;;;;;;14.63;100.00;68393.75;4937213;29;19926;-84
2022/10/30 01:37:05;;;;;;;;;;;;;;;14.61;100.00;68391.47;4917872;29;19914;-84
2022/10/30 01:39:30;;;;;;;;;;;;;;;;;;4938277;28;20397;-84
2022/10/30 01:41:55;;;;;;;;;;;;;;;14.55;100.00;68389.97;4945021;29;20726;-84
2022/10/30 01:44:31;;;;;;;;;;;;;;;14.69;99.57;68397.31;4950893;28;19950;-84
2022/10/30 01:46:57;;;;;;;;;;;;;;;14.72;99.44;68403.41;4916290;28;19915;-84
2022/10/30 01:49:40;;;;;;;;;;;;;;;14.60;99.71;68390.31;4947410;28;20405;-84
2022/10/30 01:52:17;;;;;;;;;;;;;;;14.66;99.90;68397.16;4950115;28;19969;-85
2022/10/30 01:54:52;;;;;;;;;;;;;;;14.63;99.64;68399.66;4933914;29;20299;-84
2022/10/30 01:57:17;;;;;;;;;;;;;;;14.57;100.00;68392.84;4945847;28;19926;-85
2022/10/30 01:59:42;;;;;;;;;;;;;;;;;;4947841;29;19937;-84
2022/10/30 02:02:07;;;;;;;;;;;;;;;14.59;100.00;68389.75;4930137;29;19927;-84
2022/10/30 02:04:32;;;;;;;;;;;;;;;;;;4930001;29;19918;-85
2022/10/30 02:06:58;;;;;;;;;;;;;;;14.39;100.00;68366.97;4925201;29;19929;-84
2022/10/30 02:09:23;;;;;;;;;;;;;;;14.21;100.00;68347.03;4948548;29;20446;-84
2022/10/30 02:11:49;;;;;;;;;;;;;;;;;;4933631;29;19914;-84
2022/10/30 02:14:17;;;;;;;;;;;;;;;14.29;100.00;68361.50;4933912;29;19914;-84
2022/10/30 02:16:42;;;;;;;;;;;;;;;;;;4950129;29;19922;-84
2022/10/30 02:19:07;;;;;;;;;;;;;;;14.36;100.00;68363.56;4950687;29;19918;-84
2022/10/30 02:21:33;;;;;;;;;;;;;;;14.29;100.00;68356.16;4949473;28;19914;-84
2022/10/30 02:23:58;;;;;;;;;;;;;;;;;;4946202;28;20350;-84
2022/10/30 02:26:23;;;;;;;;;;;;;;;14.15;100.00;68346.13;4947941;29;19924;-84
2022/10/30 02:28:48;;;;;;;;;;;;;;;;;;4950720;28;19914;-84
2022/10/30 02:31:13;;;;;;;;;;;;;;;;;;4952344;28;19922;-84
2022/10/30 02:33:38;;;;;;;;;;;;;;;;;;4951911;28;19942;-85
2022/10/30 02:36:04;;;;;;;;;;;;;;;13.97;100.00;68320.31;4934939;29;19918;-84
2022/10/30 02:38:30;;;;;;;;;;;;;;;;;;4929221;29;19926;-84
2022/10/30 02:40:55;;;;;;;;;;;;;;;;;;4954104;28;19941;-85
2022/10/30 02:43:20;;;;;;;;;;;;;;;;;;4953017;28;19914;-85
2022/10/30 02:45:45;;;;;;;;;;;;;;;;;;4948123;28;20009;-85
2022/10/30 02:48:11;;;;;;;;;;;;;;;13.63;100.00;68282.75;4954417;29;20587;-85
2022/10/30 02:50:36;;;;;;;;;;;;;;;13.62;100.00;68281.06;4953284;29;19922;-84
2022/10/30 02:53:01;;;;;;;;;;;;;;;13.60;100.00;68279.34;4954103;29;20002;-84
2022/10/30 02:55:26;;;;;;;;;;;;;;;;;;4948451;28;20438;-84
2022/10/30 02:57:52;;;;;;;;;;;;;;;13.38;100.00;68259.66;4942688;29;19918;-84
2022/10/30 03:00:18;;;;;;;;;;;;;;;13.34;100.00;68249.78;4941830;29;19914;-84
2022/10/30 03:02:43;;;;;;;;;;;;;;;13.27;100.00;68242.94;4946224;29;19929;-84
2022/10/30 03:05:08;;;;;;;;;;;;;;;13.20;100.00;68234.97;4936382;29;20054;-84
2022/10/30 03:07:33;;;;;;;;;;;;;;;13.12;100.00;68225.88;4949808;28;20004;-84
2022/10/30 03:09:58;;;;;;;;;;;;;;;13.08;100.00;68226.66;4949448;28;20005;-84
2022/10/30 03:12:24;;;;;;;;;;;;;;;;;;4957974;28;19928;-84
2022/10/30 03:14:49;;;;;;;;;;;;;;;13.04;100.00;68222.13;4927190;29;19921;-85
2022/10/30 03:17:14;;;;;;;;;;;;;;;13.06;100.00;68216.38;4927423;29;19922;-84
2022/10/30 03:19:42;;;;;;;;;;;;;;;;;;4951200;29;19950;-85
2022/10/30 03:22:07;;;;;;;;;;;;;;;;;;4953575;29;19922;-84
2022/10/30 03:24:32;;;;;;;;;;;;;;;12.87;100.00;68198.59;4949712;28;20074;-85
2022/10/30 03:26:58;;;;;;;;;;;;;;;;;;4953094;28;19918;-84
2022/10/30 03:29:23;;;;;;;;;;;;;;;12.96;100.00;68213.03;4951306;28;19922;-84
2022/10/30 03:31:48;;;;;;;;;;;;;;;12.94;100.00;68211.31;4949491;28;19914;-84
2022/10/30 03:34:13;;;;;;;;;;;;;;;12.92;100.00;68203.13;4951148;28;19921;-85
2022/10/30 03:36:39;;;;;;;;;;;;;;;12.94;100.00;68202.72;4948106;28;20295;-85
2022/10/30 03:39:04;;;;;;;;;;;;;;;12.92;100.00;68209.06;4954337;29;19922;-85
2022/10/30 03:41:29;;;;;;;;;;;;;;;12.89;100.00;68205.66;4934337;29;19922;-85
2022/10/30 03:43:54;;;;;;;;;;;;;;;12.85;100.00;68196.31;4952966;28;19922;-84
2022/10/30 03:46:20;;;;;;;;;;;;;;;12.85;100.00;68193.63;4952057;28;19914;-85
2022/10/30 03:48:45;;;;;;;;;;;;;;;;;;4951666;28;19949;-84
2022/10/30 03:51:10;;;;;;;;;;;;;;;12.86;100.00;68204.91;4954695;28;19921;-84
2022/10/30 03:53:35;;;;;;;;;;;;;;;12.92;100.00;68211.13;4949150;28;19931;-85
2022/10/30 03:56:01;;;;;;;;;;;;;;;12.97;100.00;68208.81;4953282;29;19914;-84
2022/10/30 03:58:28;;;;;;;;;;;;;;;13.08;100.00;68221.31;4947650;28;19994;-84
2022/10/30 04:00:53;;;;;;;;;;;;;;;12.99;100.00;68211.09;4948468;29;20014;-85
2022/10/30 04:03:18;;;;;;;;;;;;;;;13.02;100.00;68209.16;4953543;28;19945;-85
2022/10/30 04:05:43;;;;;;;;;;;;;;;13.04;100.00;68212.00;4950015;28;20954;-85
2022/10/30 04:08:09;;;;;;;;;;;;;;;;;;4949890;29;19929;-85
2022/10/30 04:10:34;;;;;;;;;;;;;;;12.93;100.00;68204.84;4944735;28;19918;-85
2022/10/30 04:12:59;;;;;;;;;;;;;;;;;;4948773;29;19922;-85
2022/10/30 04:15:25;;;;;;;;;;;;;;;12.96;100.00;68207.69;4952430;28;19970;-85
2022/10/30 04:17:50;;;;;;;;;;;;;;;12.94;100.00;68202.72;4945278;29;19923;-85
2022/10/30 04:20:15;;;;;;;;;;;;;;;;;;4956044;28;19915;-85
2022/10/30 04:22:40;;;;;;;;;;;;;;;;;;4952990;29;19915;-85
2022/10/30 04:25:05;;;;;;;;;;;;;;;;;;4947956;28;19918;-84
2022/10/30 04:27:31;;;;;;;;;;;;;;;12.92;100.00;68203.13;4955399;28;19925;-84
2022/10/30 04:29:56;;;;;;;;;;;;;;;;;;4948651;28;20318;-84
2022/10/30 04:32:21;;;;;;;;;;;;;;;13.04;100.00;68217.34;4947562;29;19921;-84
2022/10/30 04:34:46;;;;;;;;;;;;;;;;;;4950194;28;20020;-84
2022/10/30 04:37:11;;;;;;;;;;;;;;;12.93;100.00;68204.84;4952890;29;19914;-84
2022/10/30 04:39:37;;;;;;;;;;;;;;;12.85;100.00;68201.09;4952288;28;20354;-85
2022/10/30 04:42:02;;;;;;;;;;;;;;;12.67;100.00;68175.28;4952614;29;19961;-85
2022/10/30 04:44:27;;;;;;;;;;;;;;;12.57;100.00;68164.47;4949029;29;20367;-84
2022/10/30 04:46:52;;;;;;;;;;;;;;;12.51;100.00;68163.56;4948154;29;19915;-84
2022/10/30 04:49:17;;;;;;;;;;;;;;;12.51;100.00;68163.56;4924741;29;19922;-84
2022/10/30 04:51:45;;;;;;;;;;;;;;;12.40;100.00;68146.31;4950555;28;19930;-84
2022/10/30 04:54:10;;;;;;;;;;;;;;;12.36;100.00;68147.09;4943748;28;19921;-84
2022/10/30 04:56:36;;;;;;;;;;;;;;;12.26;100.00;68129.84;4946907;29;19914;-84
2022/10/30 04:59:01;;;;;;;;;;;;;;;;;;4949237;28;20318;-84
2022/10/30 05:01:26;;;;;;;;;;;;;;;12.06;100.00;68113.00;4938760;29;19954;-84
2022/10/30 05:03:51;;;;;;;;;;;;;;;12.05;100.00;68111.88;4937834;28;19915;-84
2022/10/30 05:06:25;;;;;;;;;;;;;;;12.13;100.00;68121.53;4944550;29;20001;-84
2022/10/30 05:08:50;;;;;;;;;;;;;;;12.01;100.00;68107.31;4946401;28;19979;-84
2022/10/30 05:11:16;;;;;;;;;;;;;;;12.03;100.00;68110.16;4952068;29;19918;-84
2022/10/30 05:13:41;;;;;;;;;;;;;;;11.96;100.00;68102.19;4946636;28;19914;-85
2022/10/30 05:16:06;;;;;;;;;;;;;;;11.87;100.00;68087.22;4950530;29;19918;-85
2022/10/30 05:18:31;;;;;;;;;;;;;;;11.83;100.00;68087.44;4950816;28;19925;-85
2022/10/30 05:20:56;;;;;;;;;;;;;;;;;;4949616;29;20119;-84
2022/10/30 05:23:22;;;;;;;;;;;;;;;11.68;100.00;68071.53;4950589;28;20013;-84
2022/10/30 05:25:47;;;;;;;;;;;;;;;;;;4931057;29;19958;-85
2022/10/30 05:28:12;;;;;;;;;;;;;;;11.63;100.00;68059.94;4933905;29;19915;-85
2022/10/30 05:30:37;;;;;;;;;;;;;;;;;;4932927;29;19918;-84
2022/10/30 05:33:02;;;;;;;;;;;;;;;;;;4949194;28;20017;-84
2022/10/30 05:35:27;;;;;;;;;;;;;;;;;;4948749;28;19935;-84
2022/10/30 05:37:53;;;;;;;;;;;;;;;11.50;100.00;68046.31;4949684;28;19930;-85
2022/10/30 05:40:18;;;;;;;;;;;;;;;11.43;100.00;68043.13;4929895;29;19922;-84
2022/10/30 05:42:43;;;;;;;;;;;;;;;;;;4948069;29;19930;-84
2022/10/30 05:45:08;;;;;;;;;;;;;;;11.40;100.00;68040.28;4953727;29;19925;-84
2022/10/30 05:47:34;;;;;;;;;;;;;;;11.39;100.00;68033.81;4954668;29;19964;-85
2022/10/30 05:49:59;;;;;;;;;;;;;;;;;;4956314;28;20382;-84
2022/10/30 05:52:24;;;;;;;;;;;;;;;;;;4950896;29;19918;-84
2022/10/30 05:54:49;;;;;;;;;;;;;;;;;;4950314;28;19926;-84
2022/10/30 05:57:14;;;;;;;;;;;;;;;11.21;100.00;68021.94;4944251;28;19970;-84
2022/10/30 05:59:39;;;;;;;;;;;;;;;11.20;100.00;68012.25;4946621;29;19975;-84
2022/10/30 06:02:05;;;;;;;;;;;;;;;11.18;100.00;68015.88;4947613;28;19914;-85
2022/10/30 06:04:30;;;;;;;;;;;;;;;11.11;100.00;68007.94;4952486;28;19920;-84
2022/10/30 06:06:55;;;;;;;;;;;;;;;;;;4953215;28;19950;-85
2022/10/30 06:09:20;;;;;;;;;;;;;;;;;;4954272;28;19919;-84
2022/10/30 06:11:45;;;;;;;;;;;;;;;;;;4948424;29;19918;-84
2022/10/30 06:14:10;;;;;;;;;;;;;;;11.04;100.00;68000.53;4946742;28;20336;-84
2022/10/30 06:16:36;;;;;;;;;;;;;;;;;;4951643;29;20029;-85
2022/10/30 06:19:01;;;;;;;;;;;;;;;10.91;100.00;67980.47;4954567;28;19974;-85
2022/10/30 06:21:26;;;;;;;;;;;;;;;;;;4955875;28;19921;-84
2022/10/30 06:23:51;;;;;;;;;;;;;;;;;;4953249;28;19981;-83
2022/10/30 06:26:16;;;;;;;;;;;;;;;;;;4953174;29;19984;-83
2022/10/30 06:28:41;;;;;;;;;;;;;;;;;;4936183;29;19982;-84
2022/10/30 06:31:06;;;;;;;;;;;;;;;;;;4953260;28;19919;-83
2022/10/30 06:33:32;;;;;;;;;;;;;;;10.83;100.00;67971.38;4950348;28;19921;-83
2022/10/30 06:35:57;;;;;;;;;;;;;;;10.76;100.00;67971.41;4952904;29;19922;-84
2022/10/30 06:38:22;;;;;;;;;;;;;;;;;;4951736;28;19930;-85
2022/10/30 06:40:48;;;;;;;;;;;;;;;10.79;100.00;67967.41;4944713;29;19921;-84
2022/10/30 06:43:13;;;;;;;;;;;;;;;10.79;100.00;67972.19;4953325;29;19918;-84
2022/10/30 06:45:38;;;;;;;;;;;;;;;;;;4956311;28;19914;-85
2022/10/30 06:48:04;;;;;;;;;;;;;;;10.78;100.00;67971.03;4925786;29;20018;-85
2022/10/30 06:50:29;;;;;;;;;;;;;;;10.78;100.00;67973.69;4945995;28;20298;-84
2022/10/30 06:52:54;;;;;;;;;;;;;;;;;;4949219;29;19921;-85
2022/10/30 06:55:19;;;;;;;;;;;;;;;;;;4953082;28;19914;-85
2022/10/30 06:57:44;;;;;;;;;;;;;;;10.80;100.00;67973.31;4947352;28;19930;-85
2022/10/30 07:00:10;;;;;;;;;;;;;;;10.86;100.00;67974.78;4951014;28;19918;-84
2022/10/30 07:02:36;;;;;;;;;;;;;;;;;;4952885;29;19915;-84
2022/10/30 07:05:01;;;;;;;;;;;;;;;11.00;100.00;67996.00;4952365;28;19919;-85
2022/10/30 07:07:26;;;;;;;;;;;;;;;;;;4948877;29;19918;-84
2022/10/30 07:09:52;;;;;;;;;;;;;;;11.07;100.00;67998.03;4951081;28;19921;-85
2022/10/30 07:12:17;;;;;;;;;;;;;;;11.07;100.00;67998.63;4948527;29;19957;-85
2022/10/30 07:14:42;;;;;;;;;;;;;;;;;;4951698;28;19919;-85
2022/10/30 07:17:07;;;;;;;;;;;;;;;11.18;100.00;68015.31;4953693;28;19954;-85
2022/10/30 07:19:33;;;;;;;;;;;;;;;11.29;100.00;68028.34;4953419;29;19922;-84
2022/10/30 07:21:59;;;;;;;;;;;;;;;11.43;100.00;68037.78;4950459;28;20013;-84
2022/10/30 07:24:24;;;;;;;;;;;;;;;11.57;100.00;68053.13;4943909;28;19918;-85
2022/10/30 07:26:49;;;;;;;;;;;;;;;11.73;100.00;68069.19;4950212;29;20392;-86
2022/10/30 07:29:15;;;;;;;;;;;;;;;11.82;100.00;68081.50;4950222;28;19918;-87
2022/10/30 07:31:43;;;;;;;;;;;;;;;;;;4946090;28;21863;-85
2022/10/30 07:34:09;;;;;;;;;;;;;;;11.92;100.00;68090.22;4957934;28;19955;-85
2022/10/30 07:36:34;;;;;;;;;;;;;;;12.03;100.00;68109.59;4957801;28;19968;-85
2022/10/30 07:38:59;;;;;;;;;;;;;;;12.12;100.00;68114.50;4960400;28;19922;-85
2022/10/30 07:41:24;;;;;;;;;;;;;;;12.22;100.00;68122.59;4943629;29;19921;-86
2022/10/30 07:43:49;;;;;;;;;;;;;;;12.33;100.00;68143.69;4957004;28;19922;-86
2022/10/30 07:46:15;;;;;;;;;;;;;;;12.41;100.00;68152.78;4950583;28;19914;-85
2022/10/30 07:48:40;;;;;;;;;;;;;;;12.54;100.00;68161.63;4941654;29;19921;-85
2022/10/30 07:51:05;;;;;;;;;;;;;;;;;;4952345;28;19919;-85
2022/10/30 07:53:31;;;;;;;;;;;;;;;12.75;100.00;68184.94;4946005;28;20390;-85
2022/10/30 07:55:56;;;;;;;;;;;;;;;;;;4944387;29;19915;-85
2022/10/30 07:58:21;;;;;;;;;;;;;;;12.95;100.00;68212.47;4947331;29;19945;-85
2022/10/30 08:00:46;;;;;;;;;;;;;;;;;;4949673;29;19919;-86
2022/10/30 08:03:12;;;;;;;;;;;;;;;13.18;100.00;68232.13;4947685;29;19914;-85
2022/10/30 08:05:37;;;;;;;;;;;;;;;13.27;100.00;68248.31;4951462;29;19914;-85
2022/10/30 08:08:03;;;;;;;;;;;;;;;13.35;100.00;68251.50;4952318;29;19926;-85
2022/10/30 08:10:28;;;;;;;;;;;;;;;13.46;100.00;68263.41;4949902;28;19918;-85
2022/10/30 08:12:53;;;;;;;;;;;;;;;;;;4948539;28;19930;-85
2022/10/30 08:15:18;;;;;;;;;;;;;;;13.68;100.00;68293.22;4956806;28;19921;-85
2022/10/30 08:17:44;;;;;;;;;;;;;;;;;;4957660;28;20698;-85
2022/10/30 08:20:09;;;;;;;;;;;;;;;13.85;100.00;68307.22;4963000;28;19964;-85
2022/10/30 08:22:42;;;;;;;;;;;;;;;13.96;100.00;68317.06;4940726;28;20321;-85
2022/10/30 08:25:07;;;;;;;;;;;;;;;14.05;100.00;68328.84;4941597;28;19924;-86
2022/10/30 08:27:32;;;;;;;;;;;;;;;14.15;100.00;68340.78;4952849;28;19918;-86
2022/10/30 08:29:58;;;;;;;;;;;;;;;14.26;100.00;68349.50;4950509;28;19920;-86
2022/10/30 08:32:23;;;;;;;;;;;;;;;14.34;100.00;68358.59;4937774;29;20001;-86
2022/10/30 08:34:48;;;;;;;;;;;;;;;14.41;100.00;68369.22;4939817;28;19922;-85
2022/10/30 08:37:13;;;;;;;;;;;;;;;;;;4946307;29;20843;-85
2022/10/30 08:39:38;;;;;;;;;;;;;;;;;;4935919;28;20012;-85
2022/10/30 08:42:04;;;;;;;;;;;;;;;14.57;100.00;68386.91;4957715;28;19926;-86
2022/10/30 08:44:29;;;;;;;;;;;;;;;14.60;100.00;68390.31;4949312;28;19933;-86
2022/10/30 08:46:54;;;;;;;;;;;;;;;;;;4947784;28;19949;-87
2022/10/30 08:49:19;;;;;;;;;;;;;;;14.75;100.00;68404.16;4950024;28;20010;-86
2022/10/30 08:51:45;;;;;;;;;;;;;;;14.82;100.00;68415.38;4949591;29;19942;-87
2022/10/30 08:54:12;;;;;;;;;;;;;;;14.88;100.00;68422.22;4946350;28;20495;-86
2022/10/30 08:56:37;;;;;;;;;;;;;;;14.96;100.00;68425.38;4950575;28;20009;-87
2022/10/30 08:59:05;;;;;;;;;;;;;;;15.03;100.00;68438.16;4928192;28;20015;-86
2022/10/30 09:01:31;;;;;;;;;;;;;;;15.12;100.00;68454.31;4909553;29;19922;-87
2022/10/30 09:03:56;;;;;;;;;;;;;;;15.21;100.00;68458.06;4903749;29;19919;-86
2022/10/30 09:06:24;;;;;;;;;;;;;;;15.32;100.00;68475.97;4911738;29;19922;-86
2022/10/30 09:08:49;;;;;;;;;;;;;;;;;;4900023;29;19915;-86
2022/10/30 09:11:16;;;;;;;;;;;;;;;15.45;100.00;68482.75;4907306;29;19915;-86
2022/10/30 09:13:41;;;;;;;;;;;;;;;15.56;100.00;68503.31;4898841;29;19922;-87
2022/10/30 09:16:06;;;;;;;;;;;;;;;15.62;99.89;68503.63;4898520;29;20010;-87
2022/10/30 09:18:32;;;;;;;;;;;;;;;15.74;99.88;68517.34;4907670;29;19946;-87
2022/10/30 09:20:57;;;;;;;;;;;;;;;15.90;100.00;68532.88;4908919;29;19955;-87
2022/10/30 09:23:23;;;;;;;;;;;;;;;15.99;98.55;68545.25;4910998;29;20022;-86
2022/10/30 09:25:48;;;;;;;;;;;;;;;16.04;97.42;68550.38;4937672;28;19918;-86
2022/10/30 09:28:13;;;;;;;;;;;;;;;16.14;97.77;68567.72;4958394;28;19922;-86
2022/10/30 09:30:38;;;;;;;;;;;;;;;16.18;95.99;68564.22;4957413;28;19999;-87
2022/10/30 09:33:04;;;;;;;;;;;;;;;16.23;96.07;68569.38;4955985;28;20037;-87
2022/10/30 09:35:29;;;;;;;;;;;;;;;16.30;96.14;68579.44;4937681;28;19914;-85
2022/10/30 09:37:55;;;;;;;;;;;;;;;16.39;96.00;68595.66;4951216;28;19918;-88
2022/10/30 09:40:20;;;;;;;;;;;;;;;;;;4954565;29;19987;-88
2022/10/30 09:42:47;;;;;;;;;;;;;;;16.49;95.51;68601.13;4941966;29;20279;-86
2022/10/30 09:45:24;;;;;;;;;;;;;;;16.62;97.33;68615.34;4941104;29;19925;-86
2022/10/30 09:47:50;;;;;;;;;;;;;;;16.66;94.50;68619.94;4959682;29;20280;-86
2022/10/30 09:50:24;;;;;;;;;;;;;;;16.65;93.35;68618.78;4957866;28;20013;-86
2022/10/30 09:52:49;;;;;;;;;;;;;;;16.67;93.05;68621.63;4956844;28;19918;-85
2022/10/30 09:55:22;;;;;;;;;;;;;;;16.73;93.30;68621.97;4946619;28;19926;-87
2022/10/30 09:57:50;;;;;;;;;;;;;;;16.77;92.67;68631.91;4958815;28;20047;-87
2022/10/30 10:00:16;;;;;;;;;;;;;;;;;;4953578;28;20355;-86
2022/10/30 10:02:52;;;;;;;;;;;;;;;16.92;93.22;68646.34;4951780;28;19953;-86
2022/10/30 10:05:20;;;;;;;;;;;;;;;16.99;92.19;68651.06;4950338;28;19919;-87
2022/10/30 10:07:51;;;;;;;;;;;;;;;17.09;92.79;68668.41;4954667;28;19918;-87
2022/10/30 10:10:39;;;;;;;;;;;;;;;17.21;91.82;68678.28;4958746;28;20357;-86
2022/10/30 10:13:08;;;;;;;;;;;;;;;17.26;91.58;68687.25;4944395;28;19942;-86
2022/10/30 10:15:33;;;;;;;;;;;;;;;17.35;92.41;68697.50;4960166;28;20575;-88
2022/10/30 10:18:01;;;;;;;;;;;;;;;17.39;91.41;68701.50;4957706;28;19926;-86
2022/10/30 10:20:32;;;;;;;;;;;;;;;17.47;92.17;68707.94;4953225;28;19915;-87
2022/10/30 10:22:59;;;;;;;;;;;;;;;17.55;89.95;68719.16;4924081;28;20302;-86
2022/10/30 10:25:26;;;;;;;;;;;;;;;17.59;89.67;68721.06;4957114;28;19919;-86
2022/10/30 10:28:09;;;;;;;;;;;;;;;17.71;91.22;68734.75;4954888;28;20010;-86
2022/10/30 10:30:50;;;;;;;;;;;;;;;17.81;90.43;68748.31;4956033;28;20002;-86
2022/10/30 10:33:21;;;;;;;;;;;;;;;17.85;89.06;68750.19;4947480;28;19925;-85
2022/10/30 10:35:53;;;;;;;;;;;;;;;17.80;89.10;68747.72;4926799;28;19922;-85
2022/10/30 10:38:18;;;;;;;;;;;;;;;;;;4946477;28;19977;-86
2022/10/30 10:40:46;;;;;;;;;;;;;;;17.99;89.86;68765.59;4962709;28;19926;-85
2022/10/30 10:43:14;;;;;;;;;;;;;;;;;;4947293;28;19915;-86
2022/10/30 10:45:52;;;;;;;;;;;;;;;18.03;89.98;68768.00;4914512;28;19954;-86
2022/10/30 10:48:23;;;;;;;;;;;;;;;18.12;90.78;68779.84;4920959;29;19915;-86
2022/10/30 10:50:48;;;;;;;;;;;;;;;18.24;89.08;68796.81;4895006;29;19982;-86
2022/10/30 10:53:20;;;;;;;;;;;;;;;18.27;89.27;68794.84;4914935;29;19957;-86
2022/10/30 10:55:57;;;;;;;;;;;;;;;18.27;88.90;68796.97;5073250;23;20012;-86
2022/10/30 10:58:41;;;;;;;;;;;;;;;18.38;90.41;68808.94;4965948;28;19942;-85
2022/10/30 11:01:14;;;;;;;;;;;;;;;18.38;87.44;68808.94;4967968;28;19950;-86
2022/10/30 11:03:45;;;;;;;;;;;;;;;18.39;87.99;68812.81;4957099;28;19938;-86
2022/10/30 11:06:11;;;;;;;;;;;;;;;;;;4953949;29;19914;-86
2022/10/30 11:08:36;;;;;;;;;;;;;;;18.46;86.30;68821.34;4954887;29;20310;-86
2022/10/30 11:11:03;;;;;;;;;;;;;;;18.55;86.48;68825.09;4933698;29;19922;-86
2022/10/30 11:13:49;;;;;;;;;;;;;;;18.57;86.02;68830.09;4943295;28;19997;-86
2022/10/30 11:16:17;;;;;;;;;;;;;;;18.63;86.40;68834.25;4895710;29;19947;-86
2022/10/30 11:18:44;;;;;;;;;;;;;;;18.71;85.88;68846.63;4956637;29;19922;-85
2022/10/30 11:21:15;;;;;;;;;;;;;;;18.78;85.93;68856.22;4955767;29;20290;-85
2022/10/30 11:23:41;;;;;;;;;;;;;;;18.84;85.88;68863.63;4955769;28;20453;-86
2022/10/30 11:26:16;;;;;;;;;;;;;;;18.90;85.02;68869.91;4957588;29;19914;-85
2022/10/30 11:28:44;;;;;;;;;;;;;;;18.97;83.78;68877.34;4957620;28;19919;-85
2022/10/30 11:31:39;;;;;;;;;;;;;;;18.97;84.43;68877.34;4957387;28;20318;-85
2022/10/30 11:34:16;;;;;;;;;;;;;;;19.07;84.92;68886.06;4951110;28;19922;-86
2022/10/30 11:36:42;;;;;;;;;;;;;;;19.24;84.53;68902.78;4937180;29;19966;-85
2022/10/30 11:39:09;;;;;;;;;;;;;;;19.33;83.80;68917.88;4959964;28;19922;-85
2022/10/30 11:41:34;;;;;;;;;;;;;;;19.36;81.52;68919.19;4966597;29;19915;-86
2022/10/30 11:44:00;;;;;;;;;;;;;;;19.43;82.23;68923.94;4969990;29;19982;-86
2022/10/30 11:46:25;;;;;;;;;;;;;;;19.49;82.30;68932.91;4972099;29;19945;-86
2022/10/30 11:48:53;;;;;;;;;;;;;;;19.59;83.52;68942.22;4970556;28;19918;-85
2022/10/30 11:51:29;;;;;;;;;;;;;;;19.68;82.23;68957.34;4961273;29;20024;-85
2022/10/30 11:53:54;;;;;;;;;;;;;;;19.67;81.48;68953.50;4931432;29;19934;-85
2022/10/30 11:56:21;;;;;;;;;;;;;;;19.71;82.30;68955.38;4914759;29;20264;-86
2022/10/30 11:58:49;;;;;;;;;;;;;;;19.81;82.18;68969.50;4937037;29;20720;-85
2022/10/30 12:01:14;;;;;;;;;;;;;;;19.83;80.83;68971.78;4924314;29;19967;-85
2022/10/30 12:03:48;;;;;;;;;;;;;;;19.75;80.00;68962.63;4914336;29;19923;-85
2022/10/30 12:06:26;;;;;;;;;;;;;;;19.89;80.95;68978.06;4916889;29;19914;-85
2022/10/30 12:08:58;;;;;;;;;;;;;;;19.89;80.50;68978.06;4907776;29;19958;-85
2022/10/30 12:11:28;;;;;;;;;;;;;;;19.92;80.13;68978.78;4929648;29;19926;-86
2022/10/30 12:13:54;;;;;;;;;;;;;;;19.91;80.62;68977.66;4918036;29;19991;-85
2022/10/30 12:16:19;;;;;;;;;;;;;;;20.00;81.59;68990.66;4929697;29;20489;-87
2022/10/30 12:18:53;;;;;;;;;;;;;;;20.02;79.54;68992.94;4934002;29;19919;-85
2022/10/30 12:21:19;;;;;;;;;;;;;;;20.11;81.61;68999.38;4934326;29;19914;-86
2022/10/30 12:23:50;;;;;;;;;;;;;;;20.20;80.08;69010.25;4955737;28;19976;-85
2022/10/30 12:26:15;;;;;;;;;;;;;;;;;;4937680;29;19925;-85
2022/10/30 12:28:50;;;;;;;;;;;;;;;20.25;80.73;69020.78;4951419;28;19918;-86
2022/10/30 12:31:18;;;;;;;;;;;;;;;20.38;80.99;69032.94;4940383;29;19964;-85
2022/10/30 12:34:02;;;;;;;;;;;;;;;20.47;79.72;69043.22;4940821;28;19925;-85
2022/10/30 12:36:29;;;;;;;;;;;;;;;20.59;79.51;69055.84;4937412;28;19918;-85
2022/10/30 12:39:12;;;;;;;;;;;;;;;20.60;78.68;69054.25;4951655;28;19923;-86
2022/10/30 12:41:58;;;;;;;;;;;;;;;20.61;78.06;69058.13;4952839;28;19965;-86
2022/10/30 12:44:28;;;;;;;;;;;;;;;20.65;78.50;69062.69;4908825;29;19925;-86
2022/10/30 12:46:53;;;;;;;;;;;;;;;20.78;77.84;69077.00;4936722;28;19921;-85
2022/10/30 12:49:29;;;;;;;;;;;;;;;20.77;79.01;69075.84;4934100;29;19919;-86
2022/10/30 12:52:04;;;;;;;;;;;;;;;20.82;79.91;69081.56;4952440;28;20033;-86
2022/10/30 12:54:38;;;;;;;;;;;;;;;20.91;78.72;69089.16;4956729;23;19923;-85
2022/10/30 12:57:09;;;;;;;;;;;;;;;20.95;77.94;69093.72;4930732;29;19946;-86
2022/10/30 12:59:39;;;;;;;;;;;;;;;20.88;78.43;69085.72;4931058;29;20405;-85
2022/10/30 13:02:04;;;;;;;;;;;;;;;;;;4929707;29;19933;-86
2022/10/30 13:04:33;;;;;;;;;;;;;;;20.73;78.69;69074.56;4938421;28;19914;-86
2022/10/30 13:06:58;;;;;;;;;;;;;;;;;;4933569;29;19918;-86
2022/10/30 13:09:23;;;;;;;;;;;;;;;20.78;79.28;69080.28;4948973;29;19929;-87
2022/10/30 13:11:59;;;;;;;;;;;;;;;20.78;79.81;69077.56;4950848;28;19919;-85
2022/10/30 13:14:38;;;;;;;;;;;;;;;20.80;79.57;69079.84;4952711;28;19922;-85
2022/10/30 13:17:08;;;;;;;;;;;;;;;20.81;80.43;69081.00;4932272;29;20291;-85
2022/10/30 13:19:34;;;;;;;;;;;;;;;20.77;78.13;69073.13;4951774;29;19922;-85
2022/10/30 13:22:03;;;;;;;;;;;;;;;20.72;77.21;69070.72;4932237;28;19940;-87
2022/10/30 13:24:47;;;;;;;;;;;;;;;20.81;80.51;69083.69;4951292;28;19915;-85
2022/10/30 13:27:23;;;;;;;;;;;;;;;20.82;77.93;69081.56;4929888;28;19991;-84
2022/10/30 13:30:04;;;;;;;;;;;;;;;20.79;79.59;69078.69;4953062;28;19917;-84